createdAt,value
2023-01-11T00:01:14.234Z,77.96
2023-01-11T00:03:43.001Z,77.63
2023-01-11T00:06:12.204Z,77.25
2023-01-11T00:08:40.292Z,77.40
2023-01-11T00:11:13.903Z,77.59
2023-01-11T00:13:43.845Z,77.38
2023-01-11T00:16:12.653Z,77.26
2023-01-11T00:18:41.338Z,76.69
2023-01-11T00:21:11.839Z,77.06
2023-01-11T00:23:39.900Z,77.66
2023-01-11T00:26:10.983Z,76.93
2023-01-11T00:28:39.140Z,76.86
2023-01-11T00:31:09.186Z,76.63
2023-01-11T00:33:37.335Z,76.73
2023-01-11T00:36:05.765Z,76.43
2023-01-11T00:38:51.377Z,76.71
2023-01-11T00:41:37.450Z,76.67
2023-01-11T00:44:24.802Z,76.81
2023-01-11T00:47:12.594Z,77.11
2023-01-11T00:49:41.435Z,76.93
2023-01-11T00:52:10.221Z,77.26
2023-01-11T00:54:38.532Z,77.29
2023-01-11T00:57:07.946Z,77.29
2023-01-11T00:59:36.356Z,77.65
2023-01-11T01:02:06.211Z,77.51
2023-01-11T01:04:34.166Z,77.44
2023-01-11T01:07:02.483Z,77.49
2023-01-11T01:09:30.760Z,77.25
2023-01-11T01:11:58.746Z,77.24
2023-01-11T01:14:25.999Z,77.11
2023-01-11T01:16:54.730Z,77.17
2023-01-11T01:19:27.871Z,77.19
2023-01-11T01:21:56.615Z,77.00
2023-01-11T01:24:25.216Z,76.71
2023-01-11T01:26:53.719Z,76.89
2023-01-11T01:29:22.016Z,76.54
2023-01-11T01:31:50.179Z,76.86
2023-01-11T01:34:18.410Z,76.55
2023-01-11T01:36:48.085Z,76.85
2023-01-11T01:39:16.097Z,76.58
2023-01-11T01:41:43.994Z,76.32
2023-01-11T01:44:54.378Z,76.42
2023-01-11T01:47:24.621Z,76.10
2023-01-11T01:49:52.997Z,76.52
2023-01-11T01:52:28.983Z,76.15
2023-01-11T01:55:01.560Z,76.01
2023-01-11T01:57:32.692Z,75.69
2023-01-11T02:00:02.727Z,76.13
2023-01-11T02:02:35.359Z,75.94
2023-01-11T02:05:04.584Z,75.43
2023-01-11T02:07:36.551Z,75.26
2023-01-11T02:10:11.633Z,75.12
2023-01-11T02:12:42.357Z,74.91
2023-01-11T02:15:15.629Z,74.85
2023-01-11T02:17:43.791Z,74.82
2023-01-11T02:20:51.684Z,74.53
2023-01-11T02:24:04.379Z,74.31
2023-01-11T02:27:00.466Z,74.53
2023-01-11T02:29:36.148Z,73.96
2023-01-11T02:32:14.315Z,73.88
2023-01-11T02:34:46.855Z,73.65
2023-01-11T02:37:23.163Z,73.65
2023-01-11T02:40:01.154Z,72.84
2023-01-11T02:42:56.733Z,72.66
2023-01-11T02:45:36.762Z,72.92
2023-01-11T02:48:12.382Z,72.33
2023-01-11T02:50:44.173Z,72.11
2023-01-11T02:53:17.549Z,72.01
2023-01-11T02:55:48.729Z,72.32
2023-01-11T02:58:17.968Z,72.19
2023-01-11T03:00:48.094Z,71.98
2023-01-11T03:03:17.864Z,71.65
2023-01-11T03:05:50.303Z,71.86
2023-01-11T03:08:30.181Z,71.74
2023-01-11T03:11:04.038Z,71.49
2023-01-11T03:13:41.572Z,71.29
2023-01-11T03:16:23.080Z,71.58
2023-01-11T03:18:55.335Z,71.47
2023-01-11T03:21:32.149Z,71.36
2023-01-11T03:24:06.733Z,71.64
2023-01-11T03:26:41.500Z,71.21
2023-01-11T03:29:12.471Z,71.32
2023-01-11T03:31:49.448Z,71.13
2023-01-11T03:34:20.373Z,71.82
2023-01-11T03:36:51.855Z,71.15
2023-01-11T03:39:24.899Z,70.70
2023-01-11T03:41:57.285Z,70.93
2023-01-11T03:44:26.713Z,70.77
2023-01-11T03:46:58.885Z,70.61
2023-01-11T03:49:32.061Z,70.69
2023-01-11T03:52:01.657Z,70.63
2023-01-11T03:54:31.398Z,70.86
2023-01-11T03:57:04.383Z,70.78
2023-01-11T03:59:34.375Z,70.68
2023-01-11T04:02:03.805Z,70.75
2023-01-11T04:04:31.773Z,70.79
2023-01-11T04:06:59.767Z,71.02
2023-01-11T04:09:28.346Z,70.30
2023-01-11T04:11:56.467Z,70.61
2023-01-11T04:14:24.714Z,70.76
2023-01-11T04:16:52.722Z,70.89
2023-01-11T04:19:22.642Z,70.38
2023-01-11T04:21:52.062Z,70.76
2023-01-11T04:24:21.622Z,70.77
2023-01-11T04:26:50.107Z,71.07
2023-01-11T04:29:18.232Z,70.76
2023-01-11T04:31:46.975Z,70.90
2023-01-11T04:34:15.722Z,70.69
2023-01-11T04:36:45.590Z,70.80
2023-01-11T04:39:14.037Z,70.73
2023-01-11T04:42:00.943Z,71.30
2023-01-11T04:44:28.972Z,70.42
2023-01-11T04:46:58.344Z,70.86
2023-01-11T04:49:26.226Z,71.23
2023-01-11T04:51:56.209Z,71.31
2023-01-11T04:54:24.101Z,71.45
2023-01-11T04:56:53.000Z,71.73
2023-01-11T04:59:22.223Z,71.90
2023-01-11T05:01:51.656Z,72.11
2023-01-11T05:04:21.545Z,71.77
2023-01-11T05:06:51.050Z,71.88
2023-01-11T05:09:20.393Z,71.91
2023-01-11T05:11:48.425Z,71.79
2023-01-11T05:14:17.325Z,71.68
2023-01-11T05:16:45.680Z,72.09
2023-01-11T05:19:14.227Z,72.28
2023-01-11T05:21:42.807Z,72.25
2023-01-11T05:24:13.782Z,72.22
2023-01-11T05:26:45.343Z,71.87
2023-01-11T05:29:16.514Z,72.27
2023-01-11T05:31:44.735Z,72.25
2023-01-11T05:34:14.213Z,72.61
2023-01-11T05:36:42.873Z,72.73
2023-01-11T05:39:12.298Z,72.64
2023-01-11T05:41:40.556Z,72.61
2023-01-11T05:44:30.155Z,72.44
2023-01-11T05:46:58.742Z,72.32
2023-01-11T05:49:27.430Z,72.11
2023-01-11T05:51:55.706Z,72.35
2023-01-11T05:54:23.815Z,72.49
2023-01-11T05:56:51.928Z,72.56
2023-01-11T05:59:22.877Z,72.80
2023-01-11T06:01:51.095Z,72.83
2023-01-11T06:04:19.412Z,73.07
2023-01-11T06:06:47.378Z,72.95
2023-01-11T06:09:15.599Z,73.98
2023-01-11T06:11:43.845Z,74.77
2023-01-11T06:14:12.857Z,75.25
2023-01-11T06:16:42.393Z,75.18
2023-01-11T06:19:11.495Z,75.02
2023-01-11T06:21:39.783Z,75.09
2023-01-11T06:24:08.737Z,75.88
2023-01-11T06:26:38.188Z,75.57
2023-01-11T06:29:06.563Z,75.90
2023-01-11T06:31:35.103Z,75.38
2023-01-11T06:34:04.522Z,75.40
2023-01-11T06:36:32.391Z,75.67
2023-01-11T06:39:00.257Z,74.83
2023-01-11T06:41:30.024Z,74.88
2023-01-11T06:43:58.145Z,74.78
2023-01-11T06:46:29.107Z,74.79
2023-01-11T06:48:58.760Z,75.07
2023-01-11T06:51:28.562Z,74.69
2023-01-11T06:53:57.004Z,75.14
2023-01-11T06:56:25.694Z,74.44
2023-01-11T06:58:55.176Z,74.85
2023-01-11T07:01:24.940Z,74.79
2023-01-11T07:03:53.024Z,74.58
2023-01-11T07:06:21.678Z,74.77
2023-01-11T07:08:54.144Z,74.51
2023-01-11T07:11:22.190Z,74.54
2023-01-11T07:13:51.126Z,74.67
2023-01-11T07:16:19.039Z,74.64
2023-01-11T07:19:23.471Z,74.30
2023-01-11T07:21:52.612Z,74.29
2023-01-11T07:24:24.286Z,73.91
2023-01-11T07:26:53.300Z,74.32
2023-01-11T07:29:21.194Z,74.55
2023-01-11T07:31:50.183Z,74.36
2023-01-11T07:34:19.521Z,74.68
2023-01-11T07:36:47.426Z,74.45
2023-01-11T07:39:16.465Z,74.80
2023-01-11T07:42:15.313Z,74.75
2023-01-11T07:44:43.389Z,74.68
2023-01-11T07:47:11.276Z,74.69
2023-01-11T07:49:39.819Z,74.96
2023-01-11T07:52:08.256Z,74.93
2023-01-11T07:54:36.292Z,74.64
2023-01-11T07:57:06.681Z,74.54
2023-01-11T07:59:37.258Z,76.64
2023-01-11T08:02:06.103Z,74.55
2023-01-11T08:04:34.263Z,75.05
2023-01-11T08:07:02.678Z,74.76
2023-01-11T08:09:31.691Z,75.01
2023-01-11T08:12:17.198Z,74.91
2023-01-11T08:14:46.720Z,75.15
2023-01-11T08:17:17.392Z,74.85
2023-01-11T08:19:45.403Z,74.65
2023-01-11T08:22:13.395Z,74.92
2023-01-11T08:24:42.110Z,75.20
2023-01-11T08:27:10.509Z,75.23
2023-01-11T08:29:40.130Z,75.81
2023-01-11T08:32:09.548Z,75.33
2023-01-11T08:34:37.913Z,75.52
2023-01-11T08:37:06.198Z,75.48
2023-01-11T08:39:34.472Z,75.75
2023-01-11T08:42:03.560Z,75.56
2023-01-11T08:44:34.648Z,75.47
2023-01-11T08:47:04.767Z,75.10
2023-01-11T08:49:34.137Z,75.60
2023-01-11T08:52:02.193Z,75.48
2023-01-11T08:54:30.361Z,75.49
2023-01-11T08:56:58.379Z,75.60
2023-01-11T08:59:26.756Z,75.49
2023-01-11T09:01:55.809Z,75.30
2023-01-11T09:04:25.787Z,75.81
2023-01-11T09:06:56.563Z,75.44
2023-01-11T09:09:24.898Z,75.69
2023-01-11T09:11:56.979Z,75.13
2023-01-11T09:14:27.620Z,75.39
2023-01-11T09:16:56.460Z,75.73
2023-01-11T09:19:25.406Z,75.20
2023-01-11T09:21:58.104Z,75.07
2023-01-11T09:24:26.155Z,75.37
2023-01-11T09:26:55.166Z,75.74
2023-01-11T09:29:23.348Z,75.29
2023-01-11T09:31:52.097Z,75.74
2023-01-11T09:34:21.083Z,75.58
2023-01-11T09:36:50.551Z,75.56
2023-01-11T09:39:23.393Z,75.94
2023-01-11T09:42:12.968Z,76.76
2023-01-11T09:44:50.890Z,76.91
2023-01-11T09:47:30.168Z,78.53
2023-01-11T09:50:00.646Z,80.11
2023-01-11T09:52:33.150Z,81.26
2023-01-11T09:55:04.137Z,82.00
2023-01-11T09:57:44.991Z,83.20
2023-01-11T10:00:19.755Z,84.56
2023-01-11T10:03:00.097Z,85.64
2023-01-11T10:05:42.192Z,87.05
2023-01-11T10:18:30.326Z,88.52
2023-01-11T10:18:36.990Z,88.79
2023-01-11T10:20:24.653Z,88.89
2023-01-11T10:22:57.815Z,89.81
2023-01-11T10:25:33.853Z,90.78
2023-01-11T10:28:10.011Z,90.65
2023-01-11T10:30:55.912Z,90.81
2023-01-11T10:33:46.522Z,90.91
2023-01-11T10:36:34.539Z,91.54
2023-01-11T10:39:17.557Z,91.65
2023-01-11T10:41:55.032Z,91.86
2023-01-11T10:44:31.407Z,91.56
2023-01-11T10:47:00.893Z,91.51
2023-01-11T10:49:43.732Z,91.41
2023-01-11T10:52:22.651Z,91.95
2023-01-11T10:54:54.920Z,92.02
2023-01-11T10:57:35.595Z,91.27
2023-01-11T11:00:15.862Z,91.35
2023-01-11T11:02:56.469Z,91.58
2023-01-11T11:05:33.070Z,92.17
2023-01-11T11:08:07.645Z,92.14
2023-01-11T11:10:45.098Z,92.57
2023-01-11T11:13:16.653Z,92.49
2023-01-11T11:15:55.410Z,92.59
2023-01-11T11:18:25.193Z,92.66
2023-01-11T11:20:53.488Z,93.17
2023-01-11T11:23:26.030Z,93.52
2023-01-11T11:25:57.988Z,92.88
2023-01-11T11:28:28.575Z,93.33
2023-01-11T11:30:58.842Z,93.15
2023-01-11T11:33:30.390Z,93.40
2023-01-11T11:36:01.265Z,93.56
2023-01-11T11:38:30.981Z,94.01
2023-01-11T11:41:00.577Z,94.12
2023-01-11T11:43:29.264Z,94.20
2023-01-11T11:46:01.163Z,94.45
2023-01-11T11:48:31.253Z,94.31
2023-01-11T11:51:03.306Z,94.34
2023-01-11T11:53:38.601Z,94.61
2023-01-11T11:56:17.156Z,95.03
2023-01-11T11:58:45.992Z,95.17
2023-01-11T12:01:29.434Z,94.96
2023-01-11T12:04:00.703Z,95.17
2023-01-11T12:06:30.735Z,94.83
2023-01-11T12:09:02.036Z,94.64
2023-01-11T12:11:34.971Z,94.44
2023-01-11T12:14:07.373Z,94.47
2023-01-11T12:16:41.433Z,94.31
2023-01-11T12:19:27.765Z,94.09
2023-01-11T12:22:10.922Z,94.63
2023-01-11T12:24:42.990Z,94.36
2023-01-11T12:27:20.097Z,94.24
2023-01-11T12:29:59.874Z,94.23
2023-01-11T12:33:13.871Z,94.42
2023-01-11T12:35:50.752Z,94.30
2023-01-11T12:38:24.495Z,95.19
2023-01-11T12:41:06.437Z,94.38
2023-01-11T12:43:47.072Z,94.20
2023-01-11T12:46:22.671Z,94.92
2023-01-11T12:49:12.783Z,94.60
2023-01-11T12:51:55.475Z,94.95
2023-01-11T12:54:36.724Z,95.25
2023-01-11T12:57:13.430Z,94.42
2023-01-11T12:59:55.967Z,94.74
2023-01-11T13:02:44.831Z,95.15
2023-01-11T13:05:24.574Z,94.88
2023-01-11T13:08:02.432Z,94.25
2023-01-11T13:10:39.871Z,94.40
2023-01-11T13:13:13.720Z,94.51
2023-01-11T13:15:48.954Z,95.20
2023-01-11T13:18:27.512Z,95.32
2023-01-11T13:21:01.788Z,94.75
2023-01-11T13:23:39.689Z,94.80
2023-01-11T13:26:16.595Z,95.40
2023-01-11T13:28:46.054Z,95.50
2023-01-11T13:31:15.337Z,95.53
2023-01-11T13:33:47.400Z,95.54
2023-01-11T13:36:23.616Z,96.06
2023-01-11T13:38:57.734Z,96.09
2023-01-11T13:41:29.732Z,96.19
2023-01-11T13:44:00.308Z,96.02
2023-01-11T13:46:41.053Z,95.98
2023-01-11T13:49:18.368Z,96.06
2023-01-11T13:51:51.251Z,95.93
2023-01-11T13:54:25.342Z,96.34
2023-01-11T13:56:57.248Z,96.53
2023-01-11T13:59:32.934Z,96.48
2023-01-11T14:02:05.728Z,96.04
2023-01-11T14:04:40.972Z,96.44
2023-01-11T14:07:15.304Z,96.44
2023-01-11T14:10:03.595Z,96.33
2023-01-11T14:12:43.797Z,95.86
2023-01-11T14:15:21.079Z,96.06
2023-01-11T14:18:05.716Z,96.15
2023-01-11T14:20:40.771Z,95.84
2023-01-11T14:23:12.519Z,95.90
2023-01-11T14:25:53.271Z,96.22
2023-01-11T14:28:47.150Z,96.13
2023-01-11T14:31:26.330Z,96.13
2023-01-11T14:34:24.865Z,95.69
2023-01-11T14:37:15.469Z,96.45
2023-01-11T14:40:03.387Z,96.43
2023-01-11T14:42:51.769Z,96.43
2023-01-11T14:45:25.474Z,96.48
2023-01-11T14:48:04.362Z,96.33
2023-01-11T14:50:42.552Z,96.49
2023-01-11T14:53:13.725Z,95.95
2023-01-11T14:55:46.614Z,95.94
2023-01-11T14:58:27.172Z,96.13
2023-01-11T15:01:11.348Z,95.67
2023-01-11T15:04:03.947Z,95.78
2023-01-11T15:06:34.466Z,95.52
2023-01-11T15:09:02.922Z,95.55
2023-01-11T15:11:36.639Z,95.81
2023-01-11T15:14:24.138Z,95.59
2023-01-11T15:17:13.145Z,96.23
2023-01-11T15:19:43.972Z,96.45
2023-01-11T15:22:25.179Z,96.23
2023-01-11T15:24:58.819Z,96.05
2023-01-11T15:27:29.469Z,96.11
2023-01-11T15:29:59.252Z,96.07
2023-01-11T15:32:31.149Z,96.07
2023-01-11T15:35:33.803Z,96.14
2023-01-11T15:38:14.450Z,96.49
2023-01-11T15:40:47.662Z,96.09
2023-01-11T15:43:46.325Z,96.42
2023-01-11T15:46:55.746Z,96.49
2023-01-11T15:49:49.719Z,96.51
2023-01-11T15:52:50.190Z,96.53
2023-01-11T15:56:03.901Z,96.27
2023-01-11T15:58:44.480Z,95.37
2023-01-11T16:01:26.572Z,96.02
2023-01-11T16:04:00.497Z,95.84
2023-01-11T16:06:34.728Z,95.87
2023-01-11T16:09:12.900Z,96.15
2023-01-11T16:11:49.413Z,95.77
2023-01-11T16:14:48.431Z,96.27
2023-01-11T16:17:21.731Z,96.42
2023-01-11T16:19:55.230Z,96.38
2023-01-11T16:22:26.499Z,96.28
2023-01-11T16:24:58.855Z,96.20
2023-01-11T16:27:29.686Z,96.47
2023-01-11T16:29:58.185Z,96.68
2023-01-11T16:32:32.688Z,96.49
2023-01-11T16:35:01.933Z,96.69
2023-01-11T16:37:34.617Z,96.42
2023-01-11T16:40:07.807Z,96.51
2023-01-11T16:42:40.941Z,96.41
2023-01-11T16:45:15.646Z,96.28
2023-01-11T16:48:03.721Z,96.62
2023-01-11T16:50:35.828Z,96.70
2023-01-11T16:53:06.109Z,96.27
2023-01-11T16:55:36.910Z,96.33
2023-01-11T16:58:08.180Z,95.98
2023-01-11T17:00:38.367Z,96.27
2023-01-11T17:03:32.447Z,96.29
2023-01-11T17:06:19.577Z,96.37
2023-01-11T17:08:50.111Z,96.36
2023-01-11T17:11:25.545Z,96.58
2023-01-11T17:14:19.364Z,96.32
2023-01-11T17:16:50.278Z,96.27
2023-01-11T17:19:21.803Z,96.50
2023-01-11T17:21:52.076Z,96.01
2023-01-11T17:24:25.731Z,96.21
2023-01-11T17:26:55.521Z,96.54
2023-01-11T17:29:29.202Z,96.38
2023-01-11T17:32:00.310Z,96.78
2023-01-11T17:34:32.958Z,96.35
2023-01-11T17:37:02.091Z,96.59
2023-01-11T17:39:35.345Z,96.47
2023-01-11T17:42:25.504Z,96.22
2023-01-11T17:45:15.242Z,96.94
2023-01-11T17:47:47.272Z,96.58
2023-01-11T17:50:23.501Z,96.25
2023-01-11T17:52:55.151Z,96.36
2023-01-11T17:55:25.922Z,96.48
2023-01-11T17:58:22.711Z,96.69
2023-01-11T18:01:18.280Z,96.56
2023-01-11T18:03:50.485Z,96.62
2023-01-11T18:06:30.398Z,96.06
2023-01-11T18:09:00.553Z,96.37
2023-01-11T18:11:32.764Z,96.01
2023-01-11T18:14:05.395Z,95.94
2023-01-11T18:16:35.424Z,95.97
2023-01-11T18:19:24.767Z,95.79
2023-01-11T18:21:55.192Z,95.37
2023-01-11T18:24:53.802Z,95.71
2023-01-11T18:27:30.623Z,94.97
2023-01-11T18:30:02.604Z,95.58
2023-01-11T18:32:35.519Z,95.66
2023-01-11T18:35:03.846Z,95.30
2023-01-11T18:37:37.423Z,94.81
2023-01-11T18:40:07.001Z,95.21
2023-01-11T18:42:35.742Z,95.44
2023-01-11T18:45:04.339Z,95.49
2023-01-11T18:47:32.859Z,94.81
2023-01-11T18:50:01.323Z,95.00
2023-01-11T18:52:29.652Z,95.12
2023-01-11T18:55:02.404Z,94.53
2023-01-11T18:57:30.720Z,94.97
2023-01-11T19:00:00.711Z,95.05
2023-01-11T19:02:30.515Z,94.94
2023-01-11T19:04:58.616Z,94.99
2023-01-11T19:07:27.571Z,94.70
2023-01-11T19:10:16.522Z,94.94
2023-01-11T19:12:44.702Z,94.47
2023-01-11T19:15:13.858Z,94.74
2023-01-11T19:17:42.389Z,95.03
2023-01-11T19:20:13.365Z,94.84
2023-01-11T19:22:44.310Z,94.85
2023-01-11T19:25:12.337Z,94.80
2023-01-11T19:27:42.184Z,94.56
2023-01-11T19:30:12.633Z,94.96
2023-01-11T19:32:40.979Z,94.88
2023-01-11T19:35:09.795Z,94.93
2023-01-11T19:37:38.842Z,95.18
2023-01-11T19:40:09.670Z,94.62
2023-01-11T19:42:38.267Z,94.62
2023-01-11T19:45:09.133Z,94.50
2023-01-11T19:47:37.540Z,94.40
2023-01-11T19:50:06.365Z,93.80
2023-01-11T19:52:48.183Z,94.20
2023-01-11T19:55:17.902Z,94.08
2023-01-11T19:57:46.687Z,93.91
2023-01-11T20:00:18.400Z,94.02
2023-01-11T20:02:46.663Z,93.77
2023-01-11T20:05:14.647Z,93.25
2023-01-11T20:07:43.031Z,93.22
2023-01-11T20:10:11.883Z,93.28
2023-01-11T20:12:39.954Z,92.92
2023-01-11T20:15:09.815Z,92.82
2023-01-11T20:17:39.958Z,92.78
2023-01-11T20:20:09.542Z,92.61
2023-01-11T20:22:37.883Z,93.47
2023-01-11T20:25:08.337Z,93.13
2023-01-11T20:27:37.495Z,93.04
2023-01-11T20:30:05.928Z,92.69
2023-01-11T20:32:41.509Z,92.29
2023-01-11T20:35:11.979Z,91.97
2023-01-11T20:37:40.031Z,91.67
2023-01-11T20:40:09.163Z,91.56
2023-01-11T20:42:38.104Z,91.51
2023-01-11T20:45:10.547Z,91.02
2023-01-11T20:47:39.430Z,91.13
2023-01-11T20:50:08.716Z,91.30
2023-01-11T20:52:38.802Z,91.13
2023-01-11T20:55:07.890Z,90.11
2023-01-11T20:57:36.537Z,90.60
2023-01-11T21:00:07.623Z,90.24
2023-01-11T21:02:36.016Z,90.00
2023-01-11T21:05:04.501Z,90.26
2023-01-11T21:07:33.212Z,90.12
2023-01-11T21:10:03.830Z,90.34
2023-01-11T21:15:04.905Z,89.16
2023-01-11T21:17:33.073Z,89.88
2023-01-11T21:20:02.240Z,88.67
2023-01-11T21:22:30.149Z,88.79
2023-01-11T21:24:58.390Z,88.36
2023-01-11T21:27:29.138Z,88.86
2023-01-11T21:29:59.115Z,88.67
2023-01-11T21:32:27.460Z,88.60
2023-01-11T21:34:56.762Z,88.20
2023-01-11T21:37:25.700Z,88.64
2023-01-11T21:39:55.156Z,87.52
2023-01-11T21:42:23.175Z,87.50
2023-01-11T21:44:54.389Z,87.41
2023-01-11T21:47:22.741Z,86.79
2023-01-11T21:49:51.048Z,86.23
2023-01-11T21:52:19.546Z,85.92
2023-01-11T21:54:48.483Z,85.74
2023-01-11T21:57:17.539Z,86.04
2023-01-11T21:59:46.050Z,85.84
2023-01-11T22:02:15.777Z,85.50
2023-01-11T22:04:44.151Z,85.79
2023-01-11T22:07:14.393Z,85.91
2023-01-11T22:09:53.413Z,85.82
2023-01-11T22:12:31.961Z,85.72
2023-01-11T22:14:59.883Z,85.25
2023-01-11T22:17:29.261Z,85.47
2023-01-11T22:19:57.593Z,85.21
2023-01-11T22:22:28.325Z,85.08
2023-01-11T22:24:56.363Z,84.61
2023-01-11T22:27:25.251Z,84.89
2023-01-11T22:29:54.822Z,84.81
2023-01-11T22:32:22.730Z,85.65
2023-01-11T22:34:52.778Z,85.47
2023-01-11T22:37:20.907Z,85.24
2023-01-11T22:39:49.911Z,85.66
2023-01-11T22:42:18.350Z,85.54
2023-01-11T22:44:46.663Z,85.25
2023-01-11T22:47:16.176Z,85.25
2023-01-11T22:49:44.377Z,85.65
2023-01-11T22:52:13.772Z,85.38
2023-01-11T22:54:42.544Z,84.59
2023-01-11T22:57:12.173Z,84.77
2023-01-11T22:59:40.389Z,84.72
2023-01-11T23:02:08.486Z,84.97
2023-01-11T23:04:37.531Z,85.23
2023-01-11T23:07:05.739Z,84.95
2023-01-11T23:09:35.477Z,84.83
2023-01-11T23:12:21.009Z,85.17
2023-01-11T23:14:49.060Z,85.19
2023-01-11T23:17:18.936Z,85.45
2023-01-11T23:19:48.811Z,85.79
2023-01-11T23:22:17.506Z,86.01
2023-01-11T23:24:47.054Z,85.63
2023-01-11T23:27:20.392Z,85.71
2023-01-11T23:29:49.361Z,86.02
2023-01-11T23:32:17.514Z,86.06
2023-01-11T23:34:46.730Z,86.11
2023-01-11T23:37:15.954Z,86.04
2023-01-11T23:39:46.802Z,86.33
2023-01-11T23:42:27.529Z,86.25
2023-01-11T23:44:56.146Z,86.10
2023-01-11T23:47:25.325Z,86.44
2023-01-11T23:49:56.129Z,86.41
2023-01-11T23:52:25.485Z,86.55
2023-01-11T23:54:53.678Z,86.42
2023-01-11T23:57:24.028Z,86.61
2023-01-11T23:59:53.272Z,86.82
